Time;durP1;ratioP1;P1;durP2;ratioP2;P2;SDS_P1;SDS_P2;PMS_P1;PMS_P2;Temp;Humidity;BMP_temperature;BMP_pressure;BME280_temperature;BME280_humidity;BME280_pressure;Samples;Min_cycle;Max_cycle;Signal;HPM_P1;HPM_P2
2021/04/06 00:00:46;;;;;;;8.32;2.85;;;3.90;58.80;;;;;;5048335;28;20414;-83
2021/04/06 00:03:15;;;;;;;12.60;3.67;;;3.80;59.10;;;;;;5047990;28;20108;-84
2021/04/06 00:05:42;;;;;;;13.75;3.25;;;3.80;59.10;;;;;;5047909;28;20106;-83
2021/04/06 00:08:09;;;;;;;13.55;3.10;;;3.80;59.10;;;;;;5047985;28;20480;-83
2021/04/06 00:10:48;;;;;;;16.35;3.42;;;3.80;59.20;;;;;;5048469;28;20032;-82
2021/04/06 00:13:15;;;;;;;11.60;2.70;;;3.70;59.40;;;;;;5030216;28;20048;-85
2021/04/06 00:15:43;;;;;;;15.80;3.40;;;3.70;59.30;;;;;;5046694;28;20431;-83
2021/04/06 00:18:12;;;;;;;7.47;2.53;;;3.70;59.50;;;;;;5047970;28;20025;-84
2021/04/06 00:20:39;;;;;;;10.52;2.53;;;3.60;59.60;;;;;;5046743;28;20505;-86
2021/04/06 00:23:09;;;;;;;7.28;2.22;;;3.60;59.50;;;;;;5046637;28;20044;-84
2021/04/06 00:25:38;;;;;;;7.72;1.90;;;3.60;59.60;;;;;;5050468;28;20029;-84
2021/04/06 00:28:07;;;;;;;6.80;1.90;;;3.60;59.80;;;;;;5051132;28;20036;-85
2021/04/06 00:30:35;;;;;;;10.15;1.90;;;3.50;59.80;;;;;;5050806;28;20064;-85
2021/04/06 00:33:17;;;;;;;8.32;2.60;;;3.50;59.80;;;;;;5052224;28;20041;-85
2021/04/06 00:35:55;;;;;;;11.75;2.05;;;3.50;60.10;;;;;;5050951;28;20029;-86
2021/04/06 00:38:23;;;;;;;9.02;2.17;;;3.50;60.10;;;;;;5052086;28;20029;-86
2021/04/06 00:40:53;;;;;;;9.48;2.00;;;3.50;60.10;;;;;;5034581;28;20068;-85
2021/04/06 00:43:19;;;;;;;5.95;2.10;;;3.40;60.30;;;;;;5050787;28;20116;-86
2021/04/06 00:45:47;;;;;;;6.47;2.20;;;3.40;60.40;;;;;;5052201;28;20507;-84
2021/04/06 00:48:20;;;;;;;12.73;1.98;;;3.40;60.50;;;;;;5051210;28;20025;-85
2021/04/06 00:51:12;;;;;;;8.27;2.35;;;3.40;60.70;;;;;;5033970;28;20087;-83
2021/04/06 00:54:02;;;;;;;13.20;2.55;;;3.30;60.80;;;;;;5050733;28;20020;-85
2021/04/06 00:56:36;;;;;;;8.43;1.95;;;3.30;60.80;;;;;;5051935;28;20482;-85
2021/04/06 00:59:07;;;;;;;7.50;2.17;;;3.30;60.70;;;;;;5050775;28;20051;-86
2021/04/06 01:01:46;;;;;;;9.95;2.03;;;3.30;60.90;;;;;;5050520;28;20047;-84
2021/04/06 01:04:17;;;;;;;6.53;2.35;;;3.30;61.10;;;;;;5050417;28;20533;-85
2021/04/06 01:07:09;;;;;;;9.23;1.90;;;3.30;61.10;;;;;;5050484;28;20029;-86
2021/04/06 01:10:01;;;;;;;5.55;1.75;;;3.20;61.30;;;;;;5050141;28;20024;-85
2021/04/06 01:12:28;;;;;;;13.85;2.95;;;3.20;61.30;;;;;;5032302;28;20127;-84
2021/04/06 01:14:56;;;;;;;7.63;2.00;;;3.20;61.20;;;;;;5050323;28;20122;-82
2021/04/06 01:17:34;;;;;;;6.78;2.22;;;3.20;61.40;;;;;;5050099;28;20476;-85
2021/04/06 01:20:08;;;;;;;8.77;2.15;;;3.20;61.50;;;;;;5050088;28;20082;-86
2021/04/06 01:22:34;;;;;;;9.80;2.65;;;3.10;61.60;;;;;;5051264;28;20029;-85
2021/04/06 01:25:00;;;;;;;8.13;2.47;;;3.10;61.60;;;;;;5033844;28;20151;-85
2021/04/06 01:27:25;;;;;;;8.38;2.00;;;3.10;61.80;;;;;;5050092;28;20043;-85
2021/04/06 01:29:56;;;;;;;12.18;2.22;;;3.10;61.90;;;;;;5049742;28;20036;-84
2021/04/06 01:32:27;;;;;;;5.95;2.38;;;3.00;62.10;;;;;;5050376;28;20029;-87
2021/04/06 01:34:54;;;;;;;6.53;2.08;;;3.00;62.20;;;;;;5033621;28;20025;-85
2021/04/06 01:37:21;;;;;;;11.02;2.20;;;3.00;62.30;;;;;;5033261;28;20029;-85
2021/04/06 01:39:50;;;;;;;9.45;1.90;;;2.90;62.40;;;;;;5049818;28;20547;-85
2021/04/06 01:42:16;;;;;;;9.05;1.73;;;2.90;62.50;;;;;;5017560;28;20029;-86
2021/04/06 01:44:45;;;;;;;9.18;1.95;;;2.90;62.60;;;;;;5033344;28;20025;-87
2021/04/06 01:47:14;;;;;;;8.00;2.25;;;2.90;62.70;;;;;;5049849;28;20392;-86
2021/04/06 01:49:41;;;;;;;8.68;1.92;;;2.90;62.80;;;;;;5033167;28;20033;-85
2021/04/06 01:52:08;;;;;;;11.52;1.95;;;2.90;62.90;;;;;;5049637;28;20471;-85
2021/04/06 01:54:35;;;;;;;7.97;2.08;;;2.90;63.10;;;;;;5016714;28;20150;-86
2021/04/06 01:57:10;;;;;;;9.20;1.92;;;2.90;63.20;;;;;;5049455;28;20029;-85
2021/04/06 01:59:43;;;;;;;5.15;1.48;;;2.90;63.30;;;;;;5050666;28;20066;-86
2021/04/06 02:02:10;;;;;;;10.43;2.33;;;2.90;63.40;;;;;;5049334;28;20017;-86
2021/04/06 02:04:39;;;;;;;9.00;2.63;;;2.80;63.40;;;;;;5049542;28;20032;-86
2021/04/06 02:07:06;;;;;;;9.68;2.70;;;2.80;63.50;;;;;;5033385;28;20488;-86
2021/04/06 02:09:32;;;;;;;11.85;2.10;;;2.80;63.60;;;;;;5049254;28;20498;-85
2021/04/06 02:11:58;;;;;;;8.98;1.90;;;2.80;63.70;;;;;;5032746;28;20469;-86
2021/04/06 02:14:25;;;;;;;11.52;3.53;;;2.80;63.80;;;;;;5016765;28;20036;-86
2021/04/06 02:17:04;;;;;;;5.78;1.90;;;2.70;63.80;;;;;;5033437;28;20038;-86
2021/04/06 02:19:37;;;;;;;10.70;2.15;;;2.70;64.10;;;;;;5050232;28;20026;-86
2021/04/06 02:22:11;;;;;;;8.07;2.00;;;2.80;64.10;;;;;;5050010;28;20032;-84
2021/04/06 02:24:41;;;;;;;13.02;2.20;;;2.70;64.30;;;;;;5051120;28;20039;-87
2021/04/06 02:27:09;;;;;;;;;;;2.80;64.30;;;;;;5049663;28;20170;-86
2021/04/06 02:29:50;;;;;;;4.40;1.23;;;2.80;64.10;;;;;;5048910;28;19920;-84
2021/04/06 02:32:18;;;;;;;7.80;1.77;;;2.80;63.90;;;;;;5049013;28;20025;-84
2021/04/06 02:34:46;;;;;;;7.95;1.88;;;2.80;64.00;;;;;;5048733;28;20104;-85
2021/04/06 02:37:20;;;;;;;9.13;2.25;;;2.80;64.30;;;;;;5048903;28;20029;-85
2021/04/06 02:39:51;;;;;;;10.18;2.33;;;2.80;64.50;;;;;;5048660;28;20033;-85
2021/04/06 02:42:31;;;;;;;7.53;1.80;;;2.90;64.70;;;;;;5048663;28;20021;-85
2021/04/06 02:45:12;;;;;;;8.18;2.00;;;3.00;64.80;;;;;;5048643;28;20075;-84
2021/04/06 02:47:42;;;;;;;10.85;2.13;;;3.10;64.90;;;;;;5049063;28;20031;-84
2021/04/06 02:50:13;;;;;;;12.25;1.98;;;3.20;64.70;;;;;;5048332;28;20063;-84
2021/04/06 02:52:39;;;;;;;7.57;3.45;;;3.30;64.70;;;;;;5032468;28;20527;-83
2021/04/06 02:55:07;;;;;;;8.38;1.80;;;3.30;64.70;;;;;;5048243;28;20044;-84
2021/04/06 02:57:33;;;;;;;8.75;1.92;;;3.40;64.80;;;;;;5031675;28;20071;-85
2021/04/06 02:59:59;;;;;;;8.27;2.80;;;3.40;64.90;;;;;;5032061;28;20029;-85
2021/04/06 03:02:25;;;;;;;6.60;1.98;;;3.40;64.90;;;;;;5015322;28;20033;-86
2021/04/06 03:04:51;;;;;;;9.50;1.90;;;3.40;65.10;;;;;;5031395;28;20029;-85
2021/04/06 03:07:21;;;;;;;10.38;1.92;;;3.40;65.20;;;;;;5031496;28;20039;-84
2021/04/06 03:09:58;;;;;;;8.32;1.80;;;3.40;65.30;;;;;;5049507;28;20099;-85
2021/04/06 03:12:29;;;;;;;14.40;2.60;;;3.40;65.30;;;;;;5048308;28;20093;-85
2021/04/06 03:14:55;;;;;;;10.18;2.58;;;3.40;65.40;;;;;;5031537;28;20029;-85
2021/04/06 03:17:22;;;;;;;9.35;2.08;;;3.40;65.40;;;;;;5015525;28;20022;-86
2021/04/06 03:19:55;;;;;;;8.65;1.75;;;3.30;65.50;;;;;;5047980;28;20017;-85
2021/04/06 03:22:21;;;;;;;6.70;1.85;;;3.30;65.80;;;;;;5048148;28;20025;-82
2021/04/06 03:24:48;;;;;;;13.70;2.13;;;3.40;65.90;;;;;;5048163;28;20181;-85
2021/04/06 03:27:14;;;;;;;8.70;1.67;;;3.40;66.00;;;;;;5048196;28;20534;-84
2021/04/06 03:29:40;;;;;;;7.90;2.20;;;3.40;66.10;;;;;;5031098;28;20029;-85
2021/04/06 03:32:06;;;;;;;11.70;2.50;;;3.50;66.20;;;;;;5015010;28;20024;-86
2021/04/06 03:34:38;;;;;;;9.50;2.33;;;3.50;66.10;;;;;;5047781;28;20079;-85
2021/04/06 03:37:05;;;;;;;7.97;2.00;;;3.40;66.30;;;;;;5049253;28;20408;-85
2021/04/06 03:39:33;;;;;;;6.72;2.13;;;3.40;66.20;;;;;;5031477;28;20056;-84
2021/04/06 03:41:59;;;;;;;12.88;2.50;;;3.40;66.30;;;;;;5031418;28;20608;-83
2021/04/06 03:44:29;;;;;;;11.10;2.30;;;3.40;66.30;;;;;;5031316;28;20403;-85
2021/04/06 03:47:05;;;;;;;7.53;2.20;;;3.40;66.50;;;;;;5031892;28;20112;-84
2021/04/06 03:49:33;;;;;;;7.63;1.75;;;3.40;66.80;;;;;;5047535;28;20025;-84
2021/04/06 03:52:01;;;;;;;10.38;2.20;;;3.40;66.70;;;;;;5047673;28;20044;-85
2021/04/06 03:54:34;;;;;;;14.27;2.50;;;3.30;66.70;;;;;;5047324;28;20028;-84
2021/04/06 03:57:19;;;;;;;5.10;1.75;;;3.30;66.90;;;;;;5047223;28;20017;-84
2021/04/06 03:59:44;;;;;;;9.23;1.90;;;3.30;67.00;;;;;;5047269;28;20094;-84
2021/04/06 04:02:10;;;;;;;7.10;1.80;;;3.30;67.10;;;;;;5030785;28;20032;-84
2021/04/06 04:04:38;;;;;;;6.85;2.35;;;3.20;67.20;;;;;;5031087;28;20031;-84
2021/04/06 04:07:03;;;;;;;13.68;2.08;;;3.30;67.40;;;;;;5031080;28;20154;-85
2021/04/06 04:09:29;;;;;;;9.30;1.63;;;3.30;67.70;;;;;;5030677;28;20063;-84
2021/04/06 04:11:55;;;;;;;16.20;3.00;;;3.30;67.70;;;;;;5031144;28;20029;-85
2021/04/06 04:14:21;;;;;;;8.45;1.88;;;3.30;67.80;;;;;;5047191;28;20032;-83
2021/04/06 04:16:47;;;;;;;11.27;2.05;;;3.40;68.00;;;;;;5047233;28;20383;-83
2021/04/06 04:19:12;;;;;;;5.82;1.60;;;3.30;68.00;;;;;;5047757;28;20485;-85
2021/04/06 04:21:38;;;;;;;9.52;1.90;;;3.30;68.00;;;;;;5030578;28;20087;-84
2021/04/06 04:24:04;;;;;;;10.23;3.03;;;3.30;68.30;;;;;;5030255;28;20041;-82
2021/04/06 04:26:30;;;;;;;8.30;2.25;;;3.40;68.50;;;;;;5046825;28;20379;-84
2021/04/06 04:28:56;;;;;;;10.02;2.50;;;3.40;68.60;;;;;;5030915;28;20025;-84
2021/04/06 04:31:21;;;;;;;10.50;1.50;;;3.40;68.60;;;;;;5013802;28;20434;-84
2021/04/06 04:33:47;;;;;;;15.80;2.53;;;3.40;68.80;;;;;;5047415;28;20029;-83
2021/04/06 04:36:13;;;;;;;8.80;1.67;;;3.40;68.90;;;;;;5047145;28;20163;-85
2021/04/06 04:38:39;;;;;;;10.50;1.98;;;3.40;69.00;;;;;;5048233;28;20607;-85
2021/04/06 04:41:04;;;;;;;7.45;1.90;;;3.50;69.10;;;;;;5048364;28;20036;-85
2021/04/06 04:43:30;;;;;;;15.52;2.20;;;3.40;68.90;;;;;;5048238;28;20029;-84
2021/04/06 04:45:56;;;;;;;9.50;1.85;;;3.30;69.00;;;;;;5047904;28;20017;-84
2021/04/06 04:48:21;;;;;;;11.18;2.92;;;3.10;69.10;;;;;;5046850;28;20036;-83
2021/04/06 04:50:47;;;;;;;16.42;2.22;;;3.00;69.40;;;;;;5048698;28;20048;-84
2021/04/06 04:53:13;;;;;;;9.98;1.50;;;2.90;69.60;;;;;;5047143;28;20392;-84
2021/04/06 04:55:39;;;;;;;12.57;1.70;;;2.80;69.80;;;;;;5030303;28;20037;-84
2021/04/06 04:58:04;;;;;;;12.50;2.28;;;2.70;70.00;;;;;;5046707;28;20455;-84
2021/04/06 05:00:30;;;;;;;6.10;1.67;;;2.60;70.10;;;;;;5030686;28;20029;-84
2021/04/06 05:02:56;;;;;;;13.18;2.35;;;2.60;70.50;;;;;;5013976;28;20625;-84
2021/04/06 05:05:22;;;;;;;15.70;2.05;;;2.50;70.70;;;;;;5048365;28;20541;-83
2021/04/06 05:07:47;;;;;;;6.30;1.70;;;2.50;70.80;;;;;;5046994;28;20459;-83
2021/04/06 05:10:15;;;;;;;9.60;2.58;;;2.50;71.00;;;;;;5031518;28;20232;-84
2021/04/06 05:12:41;;;;;;;14.75;1.65;;;2.40;71.20;;;;;;5051842;28;20479;-84
2021/04/06 05:15:10;;;;;;;8.98;1.20;;;2.40;71.20;;;;;;5034066;28;20033;-84
2021/04/06 05:17:36;;;;;;;8.80;1.17;;;2.40;71.50;;;;;;5051799;28;20099;-85
2021/04/06 05:20:04;;;;;;;10.35;1.80;;;2.30;71.40;;;;;;5050720;28;20028;-84
2021/04/06 05:22:30;;;;;;;6.65;1.90;;;2.30;71.50;;;;;;5034192;28;20392;-85
2021/04/06 05:24:56;;;;;;;8.80;1.80;;;2.30;71.90;;;;;;5050778;28;20028;-84
2021/04/06 05:27:21;;;;;;;9.95;1.98;;;2.30;72.40;;;;;;5050915;28;20046;-85
2021/04/06 05:29:47;;;;;;;11.63;1.70;;;2.30;72.30;;;;;;5050276;28;20017;-83
2021/04/06 05:32:13;;;;;;;6.93;1.50;;;2.30;72.50;;;;;;5034608;28;20037;-84
2021/04/06 05:34:39;;;;;;;8.30;1.95;;;2.20;72.60;;;;;;5034082;28;20365;-84
2021/04/06 05:37:04;;;;;;;8.13;3.00;;;2.20;72.80;;;;;;5050744;28;20398;-84
2021/04/06 05:39:30;;;;;;;15.85;2.95;;;2.20;72.90;;;;;;5050927;28;20027;-84
2021/04/06 05:41:56;;;;;;;8.25;2.10;;;2.20;73.00;;;;;;5051050;28;20021;-83
2021/04/06 05:44:23;;;;;;;11.88;2.05;;;2.20;73.10;;;;;;5033430;28;20545;-85
2021/04/06 05:46:52;;;;;;;10.65;2.45;;;2.30;73.30;;;;;;5049766;28;20044;-84
2021/04/06 05:49:24;;;;;;;7.78;2.10;;;2.30;73.50;;;;;;5051663;28;20017;-83
2021/04/06 05:51:49;;;;;;;9.68;2.45;;;2.30;73.60;;;;;;5050012;28;20025;-84
2021/04/06 05:54:17;;;;;;;10.65;2.08;;;2.30;73.60;;;;;;5033321;28;20090;-83
2021/04/06 05:56:43;;;;;;;14.23;3.67;;;2.30;73.70;;;;;;5033505;28;20036;-84
2021/04/06 05:59:09;;;;;;;11.20;2.33;;;2.30;73.80;;;;;;5049941;28;20116;-83
2021/04/06 06:01:40;;;;;;;10.95;3.10;;;2.30;74.00;;;;;;5032978;28;20081;-83
2021/04/06 06:04:11;;;;;;;10.13;2.80;;;2.40;74.30;;;;;;5049361;28;20479;-81
2021/04/06 06:06:37;;;;;;;6.40;2.78;;;2.40;74.40;;;;;;5049667;28;20503;-83
2021/04/06 06:09:04;;;;;;;10.32;3.22;;;2.40;74.30;;;;;;5032699;28;20026;-82
2021/04/06 06:11:31;;;;;;;11.65;3.65;;;2.40;74.50;;;;;;5049891;28;20048;-85
2021/04/06 06:13:57;;;;;;;11.45;3.60;;;2.50;74.60;;;;;;5049936;28;20178;-85
2021/04/06 06:16:27;;;;;;;13.48;4.43;;;2.50;74.70;;;;;;5032685;28;20139;-84
2021/04/06 06:19:02;;;;;;;9.93;3.88;;;2.50;74.80;;;;;;5032317;28;20035;-83
2021/04/06 06:21:44;;;;;;;14.55;4.72;;;2.50;75.00;;;;;;5047801;28;20056;-84
2021/04/06 06:24:20;;;;;;;17.95;3.50;;;2.60;75.20;;;;;;5049128;28;20386;-84
2021/04/06 06:26:46;;;;;;;7.32;2.58;;;2.70;75.10;;;;;;5049342;28;20080;-83
2021/04/06 06:29:18;;;;;;;19.92;4.22;;;2.70;75.30;;;;;;5033031;28;20111;-83
2021/04/06 06:31:51;;;;;;;8.52;1.92;;;2.80;75.50;;;;;;5050083;28;20075;-83
2021/04/06 06:34:34;;;;;;;7.43;1.75;;;2.80;75.50;;;;;;5049510;28;20029;-84
2021/04/06 06:37:02;;;;;;;4.68;1.90;;;2.90;75.80;;;;;;5050510;28;20155;-83
2021/04/06 06:39:27;;;;;;;6.20;2.47;;;3.00;75.80;;;;;;5032618;28;20032;-85
2021/04/06 06:42:01;;;;;;;5.60;1.33;;;3.00;75.90;;;;;;5032863;28;20387;-85
2021/04/06 06:44:32;;;;;;;8.07;2.38;;;3.20;76.30;;;;;;5049597;28;20044;-85
2021/04/06 06:47:06;;;;;;;15.73;2.28;;;3.40;76.30;;;;;;5050447;28;20073;-84
2021/04/06 06:49:37;;;;;;;3.72;1.33;;;3.60;76.50;;;;;;5050024;28;20028;-84
2021/04/06 06:52:24;;;;;;;7.43;1.52;;;3.80;76.20;;;;;;5049355;28;20021;-84
2021/04/06 06:54:59;;;;;;;6.75;1.60;;;3.80;76.00;;;;;;5048324;28;20529;-83
2021/04/06 06:57:32;;;;;;;14.38;2.53;;;4.00;75.70;;;;;;5049027;28;20017;-85
2021/04/06 07:00:27;;;;;;;7.35;1.60;;;3.90;75.50;;;;;;5048577;28;20024;-85
2021/04/06 07:02:53;;;;;;;9.80;1.65;;;3.80;75.60;;;;;;5027226;28;20037;-84
2021/04/06 07:05:28;;;;;;;7.20;1.70;;;3.80;75.50;;;;;;5031884;28;20029;-85
2021/04/06 07:08:02;;;;;;;15.57;4.43;;;3.80;76.20;;;;;;5048620;28;20021;-83
2021/04/06 07:10:37;;;;;;;7.30;2.50;;;3.70;75.90;;;;;;5048337;28;20021;-84
2021/04/06 07:13:06;;;;;;;9.73;1.80;;;3.70;76.20;;;;;;5049341;28;20419;-83
2021/04/06 07:15:34;;;;;;;8.73;1.93;;;3.70;76.40;;;;;;5048460;28;20025;-86
2021/04/06 07:18:14;;;;;;;3.90;1.60;;;3.80;76.50;;;;;;5048003;28;20505;-83
2021/04/06 07:20:50;;;;;;;6.18;1.35;;;3.80;76.70;;;;;;5049088;28;20110;-84
2021/04/06 07:23:38;;;;;;;5.20;1.63;;;3.80;76.90;;;;;;5047879;28;20033;-83
2021/04/06 07:26:10;;;;;;;14.15;2.40;;;3.90;77.10;;;;;;5049563;28;20085;-84
2021/04/06 07:28:37;;;;;;;4.38;1.30;;;3.90;77.10;;;;;;5047677;28;20024;-83
2021/04/06 07:31:04;;;;;;;4.95;1.38;;;4.00;77.30;;;;;;5049463;28;20122;-84
2021/04/06 07:33:33;;;;;;;9.43;1.00;;;4.10;77.50;;;;;;5031296;28;20025;-85
2021/04/06 07:36:08;;;;;;;4.47;1.80;;;4.30;78.00;;;;;;5032197;28;20506;-83
2021/04/06 07:38:52;;;;;;;9.48;1.88;;;4.50;78.60;;;;;;5048170;28;20036;-85
2021/04/06 07:41:22;;;;;;;11.07;1.88;;;4.70;78.50;;;;;;5047815;28;20032;-85
2021/04/06 07:43:48;;;;;;;3.83;1.23;;;4.90;78.00;;;;;;5047450;28;20028;-85
2021/04/06 07:46:32;;;;;;;4.45;1.40;;;5.10;78.00;;;;;;5047371;28;20036;-85
2021/04/06 07:48:59;;;;;;;9.50;1.67;;;5.40;79.30;;;;;;5047183;28;20573;-85
2021/04/06 07:51:30;;;;;;;9.52;1.38;;;6.10;80.90;;;;;;5030228;28;20132;-78
2021/04/06 07:54:11;;;;;;;7.32;1.27;;;7.10;81.20;;;;;;5048468;28;20036;-85
2021/04/06 07:56:43;;;;;;;4.35;1.30;;;8.60;81.10;;;;;;5047646;28;20056;-83
2021/04/06 07:59:09;;;;;;;5.03;1.52;;;10.20;79.20;;;;;;5046615;28;20033;-85
2021/04/06 08:01:35;;;;;;;5.75;1.70;;;11.60;77.30;;;;;;5030185;28;20067;-86
2021/04/06 08:04:06;;;;;;;6.82;1.40;;;12.90;75.10;;;;;;5046874;28;20059;-86
2021/04/06 08:06:44;;;;;;;17.75;2.75;;;14.30;72.40;;;;;;5047940;28;20021;-86
2021/04/06 08:09:32;;;;;;;4.30;1.10;;;15.40;69.00;;;;;;5046811;28;20021;-87
2021/04/06 08:12:20;;;;;;;5.28;1.33;;;16.30;65.80;;;;;;5046507;28;20487;-86
2021/04/06 08:15:04;;;;;;;4.72;1.50;;;16.90;63.60;;;;;;5046728;28;20057;-85
2021/04/06 08:17:30;;;;;;;11.57;1.92;;;17.50;62.00;;;;;;5046707;28;20028;-87
2021/04/06 08:20:14;;;;;;;7.70;1.55;;;17.90;61.40;;;;;;5046720;28;20025;-85
2021/04/06 08:22:45;;;;;;;8.10;2.00;;;18.30;59.00;;;;;;5046796;28;20383;-85
2021/04/06 08:25:21;;;;;;;9.80;1.95;;;18.40;58.30;;;;;;5046832;28;20075;-86
2021/04/06 08:27:46;;;;;;;5.93;1.40;;;18.60;57.20;;;;;;5046401;28;20107;-84
2021/04/06 08:30:18;;;;;;;4.95;1.30;;;19.00;57.00;;;;;;5046643;28;20581;-86
2021/04/06 08:33:08;;;;;;;5.70;1.52;;;19.30;54.90;;;;;;5046515;28;20061;-84
2021/04/06 08:35:45;;;;;;;5.65;1.40;;;19.10;53.60;;;;;;5047309;28;20443;-87
2021/04/06 08:38:23;;;;;;;6.75;1.90;;;19.10;53.80;;;;;;5046231;28;20038;-88
2021/04/06 08:40:54;;;;;;;5.68;1.60;;;19.10;52.00;;;;;;5046601;28;20029;-86
2021/04/06 08:43:25;;;;;;;5.45;1.45;;;18.90;51.90;;;;;;5048074;28;20021;-85
2021/04/06 08:45:55;;;;;;;8.80;1.75;;;19.00;51.80;;;;;;5048611;28;20434;-87
2021/04/06 08:48:43;;;;;;;14.55;2.35;;;19.10;51.00;;;;;;5033626;28;20060;-86
2021/04/06 08:51:32;;;;;;;6.70;1.50;;;19.20;50.60;;;;;;5049964;28;20055;-87
2021/04/06 08:54:03;;;;;;;7.85;1.60;;;19.80;50.70;;;;;;5049617;28;20029;-85
2021/04/06 08:56:30;;;;;;;9.60;1.20;;;20.30;50.20;;;;;;5051389;28;20074;-84
2021/04/06 08:59:21;;;;;;;3.60;1.20;;;21.00;50.00;;;;;;5050000;28;20531;-86
2021/04/06 09:01:56;;;;;;;4.15;1.58;;;21.50;48.20;;;;;;5034926;28;20078;-86
2021/04/06 09:04:28;;;;;;;5.97;1.67;;;21.60;46.80;;;;;;5050820;28;20068;-84
2021/04/06 09:06:54;;;;;;;6.13;1.40;;;21.10;46.50;;;;;;5050759;28;20471;-87
2021/04/06 09:09:28;;;;;;;10.07;1.20;;;20.40;47.00;;;;;;5050344;28;20021;-87
2021/04/06 09:11:57;;;;;;;10.48;5.32;;;20.10;46.70;;;;;;5051352;28;20021;-86
2021/04/06 09:14:25;;;;;;;8.13;1.47;;;20.20;46.40;;;;;;5051719;28;20407;-85
2021/04/06 09:16:52;;;;;;;3.92;1.20;;;20.00;46.40;;;;;;5052172;28;20496;-87
2021/04/06 09:19:20;;;;;;;9.70;1.27;;;20.20;46.30;;;;;;5050407;28;20036;-87
2021/04/06 09:22:00;;;;;;;7.38;2.30;;;20.00;45.60;;;;;;5052315;28;20044;-86
2021/04/06 09:24:27;;;;;;;7.07;1.90;;;20.50;46.50;;;;;;5051331;28;20025;-87
2021/04/06 09:26:55;;;;;;;7.18;1.92;;;20.80;45.40;;;;;;5050233;28;20340;-85
2021/04/06 09:29:25;;;;;;;6.97;1.88;;;20.40;44.60;;;;;;5034208;28;20115;-87
2021/04/06 09:31:54;;;;;;;5.45;1.40;;;20.10;45.10;;;;;;5051551;28;20131;-85
2021/04/06 09:34:22;;;;;;;6.03;1.33;;;20.40;45.50;;;;;;5049359;28;20384;-88
2021/04/06 09:37:04;;;;;;;5.78;1.13;;;20.60;44.80;;;;;;5049960;28;20029;-86
2021/04/06 09:39:30;;;;;;;8.98;1.98;;;20.30;44.20;;;;;;5052140;28;20032;-87
2021/04/06 09:41:58;;;;;;;5.97;1.13;;;19.80;43.40;;;;;;5051520;28;20047;-87
2021/04/06 09:44:25;;;;;;;12.30;1.63;;;19.60;44.70;;;;;;5033911;28;20083;-86
2021/04/06 09:46:57;;;;;;;13.70;1.60;;;20.20;44.70;;;;;;5050685;28;20071;-87
2021/04/06 09:49:28;;;;;;;11.07;1.38;;;20.60;43.30;;;;;;5052494;28;20525;-89
2021/04/06 09:51:55;;;;;;;5.15;0.82;;;20.20;42.20;;;;;;5051617;28;20592;-86
2021/04/06 09:54:27;;;;;;;7.90;1.25;;;19.40;42.10;;;;;;5051385;28;20036;-86
2021/04/06 09:56:54;;;;;;;7.75;1.17;;;18.50;42.10;;;;;;5049373;28;20045;-84
2021/04/06 09:59:21;;;;;;;5.10;1.02;;;17.30;42.40;;;;;;5050301;28;20025;-86
2021/04/06 10:01:52;;;;;;;9.57;1.60;;;16.10;42.90;;;;;;5050804;28;20032;-83
2021/04/06 10:04:37;;;;;;;4.05;1.20;;;15.30;44.30;;;;;;5033089;28;20131;-82
2021/04/06 10:07:13;;;;;;;5.00;1.23;;;16.00;46.00;;;;;;5050655;28;20025;-84
2021/04/06 10:09:46;;;;;;;13.32;1.70;;;17.30;46.40;;;;;;5049593;28;20044;-85
2021/04/06 10:12:13;;;;;;;4.50;0.80;;;18.30;44.90;;;;;;5049863;28;20060;-85
2021/04/06 10:14:40;;;;;;;6.63;1.25;;;18.60;43.00;;;;;;5049914;28;20284;-86
2021/04/06 10:17:17;;;;;;;6.03;1.05;;;18.20;42.60;;;;;;5049075;28;20035;-85
2021/04/06 10:19:54;;;;;;;5.38;1.15;;;18.10;42.80;;;;;;5032459;28;20052;-85
2021/04/06 10:22:22;;;;;;;8.02;1.60;;;17.60;42.50;;;;;;5049024;28;20565;-85
2021/04/06 10:24:57;;;;;;;5.00;1.20;;;16.90;42.50;;;;;;5049292;28;20033;-85
2021/04/06 10:27:26;;;;;;;5.40;1.23;;;16.30;42.30;;;;;;5050170;28;20017;-87
2021/04/06 10:29:56;;;;;;;3.22;0.98;;;15.90;43.90;;;;;;5050012;28;20040;-84
2021/04/06 10:32:28;;;;;;;12.43;1.42;;;16.30;44.60;;;;;;5048712;28;20040;-84
2021/04/06 10:34:57;;;;;;;5.40;1.38;;;16.80;44.60;;;;;;5048701;28;20486;-85
2021/04/06 10:37:23;;;;;;;11.27;1.47;;;16.80;44.00;;;;;;5049316;28;20427;-87
2021/04/06 10:39:50;;;;;;;11.82;1.30;;;16.70;43.50;;;;;;5032382;28;20032;-86
2021/04/06 10:42:17;;;;;;;7.40;1.05;;;16.10;43.20;;;;;;5033806;28;20104;-81
2021/04/06 10:44:45;;;;;;;2.78;0.98;;;15.50;43.70;;;;;;5048877;28;20033;-82
2021/04/06 10:47:23;;;;;;;13.48;1.40;;;15.90;45.50;;;;;;5048890;28;20107;-84
2021/04/06 10:49:53;;;;;;;5.30;0.85;;;16.90;45.00;;;;;;5049324;28;20029;-85
2021/04/06 10:52:27;;;;;;;3.67;0.93;;;17.10;43.40;;;;;;5032110;28;20083;-84
2021/04/06 10:54:52;;;;;;;4.10;0.80;;;16.90;43.10;;;;;;5048221;28;20029;-86
2021/04/06 10:57:30;;;;;;;8.15;1.30;;;16.80;43.00;;;;;;5048935;28;20035;-86
2021/04/06 10:59:56;;;;;;;5.47;0.93;;;16.70;42.50;;;;;;5048717;28;20025;-84
2021/04/06 11:02:24;;;;;;;4.10;1.10;;;16.50;42.50;;;;;;5048567;28;20048;-85
2021/04/06 11:04:50;;;;;;;4.35;1.50;;;16.70;42.90;;;;;;5047252;28;20167;-84
2021/04/06 11:07:28;;;;;;;4.90;1.23;;;17.40;43.40;;;;;;5047285;28;20061;-85
2021/04/06 11:09:53;;;;;;;6.93;1.00;;;18.60;43.20;;;;;;5048184;28;20036;-85
2021/04/06 11:12:19;;;;;;;4.63;1.25;;;19.80;42.80;;;;;;5030719;28;20036;-86
2021/04/06 11:14:46;;;;;;;9.00;2.00;;;20.40;41.40;;;;;;5047716;28;20033;-84
2021/04/06 11:17:13;;;;;;;5.10;1.08;;;20.30;40.30;;;;;;5048056;28;20089;-83
2021/04/06 11:19:44;;;;;;;12.63;1.20;;;20.30;40.50;;;;;;5047431;28;20025;-84
2021/04/06 11:22:16;;;;;;;8.73;1.08;;;20.30;39.30;;;;;;5047956;28;20049;-85
2021/04/06 11:24:44;;;;;;;5.75;1.05;;;19.40;38.70;;;;;;5049256;28;20135;-86
2021/04/06 11:27:10;;;;;;;3.08;1.38;;;18.20;39.40;;;;;;5050609;28;20017;-85
2021/04/06 11:29:39;;;;;;;4.55;0.80;;;16.90;39.40;;;;;;5014854;28;20029;-85
2021/04/06 11:32:08;;;;;;;3.78;0.90;;;16.00;40.40;;;;;;5048453;28;20032;-83
2021/04/06 11:34:35;;;;;;;1.73;0.70;;;15.50;41.30;;;;;;5049584;28;20033;-85
2021/04/06 11:37:01;;;;;;;6.55;1.35;;;15.20;41.60;;;;;;5051336;28;20032;-85
2021/04/06 11:39:30;;;;;;;4.57;0.70;;;14.80;41.40;;;;;;5047997;28;20032;-83
2021/04/06 11:41:56;;;;;;;2.38;0.98;;;14.40;41.80;;;;;;5047628;28;20017;-86
2021/04/06 11:44:22;;;;;;;4.63;1.63;;;14.30;42.50;;;;;;5030828;28;20033;-84
2021/04/06 11:46:48;;;;;;;5.32;1.30;;;14.20;42.60;;;;;;5031264;28;20029;-86
2021/04/06 11:49:16;;;;;;;4.22;0.85;;;14.10;42.40;;;;;;5047278;28;20151;-86
2021/04/06 11:51:43;;;;;;;5.10;1.52;;;14.10;42.60;;;;;;5047427;28;20079;-85
2021/04/06 11:54:11;;;;;;;5.20;1.20;;;14.20;42.70;;;;;;5030962;28;20111;-85
2021/04/06 11:56:37;;;;;;;3.95;1.05;;;14.20;42.60;;;;;;5047067;28;20027;-86
2021/04/06 11:59:04;;;;;;;4.32;1.30;;;14.00;42.40;;;;;;5031422;28;20025;-83
2021/04/06 12:01:30;;;;;;;5.63;1.33;;;13.80;42.40;;;;;;5048305;28;20032;-88
2021/04/06 12:03:56;;;;;;;3.28;1.17;;;13.50;42.40;;;;;;5046974;28;20053;-85
2021/04/06 12:06:23;;;;;;;4.80;1.10;;;13.20;42.90;;;;;;5047104;28;20025;-84
2021/04/06 12:08:48;;;;;;;9.38;1.38;;;13.30;44.00;;;;;;5048026;28;20025;-86
2021/04/06 12:11:14;;;;;;;3.40;1.20;;;13.70;44.10;;;;;;5047057;28;20436;-85
2021/04/06 12:13:40;;;;;;;3.08;1.10;;;13.90;43.80;;;;;;5046042;28;20040;-86
2021/04/06 12:16:06;;;;;;;3.15;1.45;;;13.90;43.70;;;;;;5013880;28;20055;-85
2021/04/06 12:18:32;;;;;;;4.43;1.33;;;14.10;43.70;;;;;;5045720;28;20025;-85
2021/04/06 12:20:57;;;;;;;4.97;0.93;;;14.50;44.30;;;;;;5047453;28;20110;-84
2021/04/06 12:23:23;;;;;;;2.80;1.10;;;15.30;44.40;;;;;;5047248;28;20259;-85
2021/04/06 12:25:49;;;;;;;7.25;2.28;;;15.40;43.20;;;;;;5046723;28;20029;-85
2021/04/06 12:28:15;;;;;;;5.68;2.03;;;15.00;43.30;;;;;;5046615;28;20055;-84
2021/04/06 12:30:41;;;;;;;4.15;1.13;;;14.60;43.50;;;;;;5046435;28;20116;-85
2021/04/06 12:33:06;;;;;;;3.13;0.93;;;14.50;43.70;;;;;;5046756;28;20040;-84
2021/04/06 12:35:32;;;;;;;8.60;1.80;;;14.40;43.70;;;;;;5047685;28;20082;-86
2021/04/06 12:37:58;;;;;;;7.18;1.38;;;14.10;43.80;;;;;;5047811;28;20030;-85
2021/04/06 12:40:24;;;;;;;4.75;1.20;;;14.00;44.30;;;;;;5049185;28;20032;-87
2021/04/06 12:42:50;;;;;;;7.70;1.27;;;13.80;44.20;;;;;;5032045;28;20074;-85
2021/04/06 12:45:17;;;;;;;5.22;1.52;;;13.70;44.40;;;;;;5048005;28;20025;-85
2021/04/06 12:47:44;;;;;;;7.25;1.48;;;14.00;45.30;;;;;;5046955;28;20029;-84
2021/04/06 12:50:11;;;;;;;7.40;1.30;;;14.60;45.30;;;;;;5046943;28;20029;-85
2021/04/06 12:52:36;;;;;;;5.45;1.10;;;15.30;45.00;;;;;;5046919;28;20037;-83
2021/04/06 12:55:04;;;;;;;4.65;1.73;;;15.80;45.00;;;;;;5047789;28;20365;-86
2021/04/06 12:57:29;;;;;;;3.45;0.95;;;16.60;44.60;;;;;;5029686;28;20032;-86
2021/04/06 12:59:56;;;;;;;6.03;1.30;;;16.80;42.90;;;;;;5046079;28;20085;-84
2021/04/06 13:02:26;;;;;;;6.78;1.50;;;16.20;42.80;;;;;;5030123;28;20037;-83
2021/04/06 13:04:51;;;;;;;4.13;1.30;;;15.60;42.60;;;;;;5047603;28;20100;-86